Malmstrom A F B, Montana
Current Conditions -  °F | °C
As of 2:56 PM on Saturday 25 Oct 2014 (Local Time) from KGFA Reporting Station
Clear Clear  
Wind Chill: 55°   Ceiling: Unl
Heat Index: 55°   Visibility: 10mi
Dew Point: 43°   Wind: 8mph
Humidity: 63%   Direction: 70°ENE
Pressure: 29.77"   Gusts: NA
Location:  47.5102°N, 111.1959°W
Report Text: KGFA 252056Z AUTO 07007KT 10SM CLR 13/06 A2977 RMK AO2 SLPNO T01300061 57031
Loading
Personal Weather Stations






























Interactive Weather Map
Tropical Storm Tracking
New forecast layout! Learn more

10-Day Weather Forecast

Advertisements
Track Severe Weather on mobile